Time;durP1;ratioP1;P1;durP2;ratioP2;P2;SDS_P1;SDS_P2;PMS_P1;PMS_P2;Temp;Humidity;BMP_temperature;BMP_pressure;BME280_temperature;BME280_humidity;BME280_pressure;Samples;Min_cycle;Max_cycle;Signal;HPM_P1;HPM_P2
2022/10/05 00:01:48;;;;;;;5.53;3.33;;;;;;;11.16;75.00;100706.93;1757876;80;21110;-59
2022/10/05 00:04:18;;;;;;;7.78;3.12;;;;;;;11.12;75.20;100705.02;1768397;79;21035;-59
2022/10/05 00:07:07;;;;;;;6.72;3.37;;;;;;;11.13;75.34;100713.78;1769336;79;21039;-59
2022/10/05 00:09:34;;;;;;;8.25;3.72;;;;;;;11.19;75.28;100711.14;1763230;79;21065;-60
2022/10/05 00:12:20;;;;;;;6.40;3.67;;;;;;;11.23;75.20;100721.78;1762603;80;21040;-59
2022/10/05 00:14:49;;;;;;;7.58;3.52;;;;;;;11.24;75.20;100711.13;1762466;79;21259;-59
2022/10/05 00:17:20;;;;;;;7.37;3.05;;;;;;;11.24;75.25;100711.61;1757885;80;21328;-59
2022/10/05 00:19:51;;;;;;;10.43;3.37;;;;;;;11.28;75.23;100718.31;1760525;79;21505;-60
2022/10/05 00:22:25;;;;;;;7.45;3.35;;;;;;;11.34;74.97;100727.89;1766426;79;21562;-59
2022/10/05 00:24:57;;;;;;;6.10;3.15;;;;;;;11.38;74.83;100724.56;1775955;79;21008;-59
2022/10/05 00:27:25;;;;;;;6.78;3.80;;;;;;;11.38;74.68;100731.61;1742647;82;21241;-59
2022/10/05 00:29:56;;;;;;;6.15;3.50;;;;;;;11.38;74.69;100726.34;1796321;79;21544;-59
2022/10/05 00:32:25;;;;;;;7.42;3.27;;;;;;;11.40;74.67;100732.32;1739519;81;21051;-59
2022/10/05 00:34:53;;;;;;;7.50;3.80;;;;;;;11.47;74.50;100736.18;1775106;79;21758;-60
2022/10/05 00:37:19;;;;;;;6.37;3.55;;;;;;;11.50;74.27;100739.89;1731222;82;21054;-59
2022/10/05 00:39:46;;;;;;;6.05;3.62;;;;;;;11.49;74.10;100750.06;1779953;79;22208;-59
2022/10/05 00:42:36;;;;;;;6.47;2.83;;;;;;;11.43;74.12;100744.80;1781705;79;21037;-59
2022/10/05 00:45:13;;;;;;;8.90;3.20;;;;;;;11.51;74.04;100747.66;1783119;79;21069;-59
2022/10/05 00:48:06;;;;;;;5.62;3.25;;;;;;;11.56;73.93;100748.62;1787881;79;21059;-59
2022/10/05 00:50:42;;;;;;;8.70;3.35;;;;;;;11.58;73.76;100752.45;1747703;82;20999;-59
2022/10/05 00:53:31;;;;;;;6.70;3.95;;;;;;;11.53;73.85;100756.30;1769106;79;21930;-59
2022/10/05 00:56:12;;;;;;;5.90;3.00;;;;;;;11.50;73.91;100766.25;1722688;82;21031;-59
2022/10/05 00:59:01;;;;;;;7.50;3.00;;;;;;;11.53;73.87;100766.84;1739489;82;21505;-59
2022/10/05 01:01:47;;;;;;;7.92;3.60;;;;;;;11.58;73.80;100770.41;1806900;79;21019;-59
2022/10/05 01:04:47;;;;;;;6.12;3.50;;;;;;;11.60;73.63;100775.11;1769529;79;21079;-60
2022/10/05 01:07:42;;;;;;;7.03;3.10;;;;;;;11.59;73.63;100783.13;1734768;80;21276;-59
2022/10/05 01:10:40;;;;;;;5.67;3.08;;;;;;;11.55;73.61;100782.55;1774095;79;21228;-59
2022/10/05 01:13:31;;;;;;;7.20;3.08;;;;;;;11.56;73.62;100786.84;1765689;79;21081;-59
2022/10/05 01:16:16;;;;;;;7.28;3.42;;;;;;;11.62;73.53;100793.45;1740055;82;21631;-59
2022/10/05 01:19:12;;;;;;;7.65;3.52;;;;;;;11.62;73.38;100795.59;1732272;82;21000;-59
2022/10/05 01:22:00;;;;;;;7.12;3.00;;;;;;;11.57;73.36;100804.83;1759173;80;21149;-60
2022/10/05 01:25:14;;;;;;;8.88;3.15;;;;;;;11.50;73.71;100809.24;1667075;85;21088;-59
2022/10/05 01:28:07;;;;;;;5.90;3.10;;;;;;;11.52;73.73;100815.72;1772528;79;21517;-59
2022/10/05 01:34:04;;;;;;;5.85;3.20;;;;;;;11.52;73.81;100821.81;1797935;79;22712;-59
2022/10/05 01:36:58;;;;;;;7.47;3.00;;;;;;;11.60;73.07;100822.55;1739792;81;21011;-59
2022/10/05 01:39:33;;;;;;;6.00;2.95;;;;;;;11.60;73.13;100830.46;1751194;81;21792;-59
2022/10/05 01:42:38;;;;;;;6.30;3.40;;;;;;;11.65;72.83;100825.67;1748581;81;21043;-59
2022/10/05 01:45:27;;;;;;;6.72;3.12;;;;;;;11.64;72.88;100828.42;1728481;80;21042;-59
2022/10/05 01:48:08;;;;;;;6.97;3.45;;;;;;;11.57;72.85;100837.77;1751817;81;21063;-59
2022/10/05 01:50:58;;;;;;;6.47;2.95;;;;;;;11.50;73.00;100842.19;1752032;81;21039;-60
2022/10/05 01:53:33;;;;;;;6.75;3.10;;;;;;;11.53;72.92;100843.73;1749276;81;21657;-60
2022/10/05 01:56:57;;;;;;;6.97;3.00;;;;;;;11.56;72.84;100849.26;1751873;81;21065;-59
2022/10/05 01:59:32;;;;;;;5.75;3.22;;;;;;;11.58;72.59;100856.56;1741682;81;21073;-59
2022/10/05 02:02:11;;;;;;;7.42;3.47;;;;;;;11.46;72.81;100855.70;1720282;81;21050;-59
2022/10/05 02:05:04;;;;;;;6.30;2.60;;;;;;;11.46;72.81;100855.70;1743929;80;21497;-59
2022/10/05 02:07:39;;;;;;;7.78;3.20;;;;;;;11.49;72.50;100859.42;1749857;81;21332;-60
2022/10/05 02:10:27;;;;;;;6.35;3.05;;;;;;;11.54;72.39;100861.23;1744110;81;21020;-60
2022/10/05 02:13:16;;;;;;;6.60;3.20;;;;;;;11.56;72.18;100874.30;1747797;80;21057;-59
2022/10/05 02:15:47;;;;;;;6.30;3.08;;;;;;;11.56;72.05;100872.48;1707756;81;21117;-59
2022/10/05 02:18:22;;;;;;;5.67;2.62;;;;;;;11.49;72.03;100874.75;1734812;81;21606;-59
2022/10/05 02:20:49;;;;;;;4.67;2.42;;;;;;;11.47;71.98;100877.98;1703829;83;21135;-59
2022/10/05 02:23:21;;;;;;;5.03;2.50;;;;;;;11.52;71.94;100881.60;1720335;82;21041;-59
2022/10/05 02:25:48;;;;;;;6.30;3.20;;;;;;;11.51;71.81;100889.13;1723850;81;21023;-60
2022/10/05 02:28:32;;;;;;;6.53;3.02;;;;;;;11.49;71.80;100891.88;1723343;82;21149;-59
2022/10/05 02:31:10;;;;;;;6.72;2.98;;;;;;;11.42;71.97;100895.11;1708488;81;21010;-59
2022/10/05 02:33:39;;;;;;;5.25;2.62;;;;;;;11.40;72.05;100893.91;1705970;81;21892;-60
2022/10/05 02:36:18;;;;;;;7.97;3.17;;;;;;;11.46;71.80;100904.45;1747088;81;21138;-59
2022/10/05 02:39:12;;;;;;;9.38;3.12;;;;;;;11.46;71.78;100904.45;1743835;81;21051;-59
2022/10/05 02:41:47;;;;;;;5.62;2.92;;;;;;;11.45;71.68;100905.43;1699163;84;21052;-59
2022/10/05 02:44:19;;;;;;;6.47;3.05;;;;;;;11.36;71.61;100906.11;1731631;81;21603;-59
2022/10/05 02:47:16;;;;;;;5.12;2.70;;;;;;;11.34;71.63;100925.49;1751096;81;21108;-60
2022/10/05 02:49:54;;;;;;;5.97;2.75;;;;;;;11.38;71.50;100912.95;1743086;81;21082;-59
2022/10/05 02:52:36;;;;;;;8.10;3.33;;;;;;;11.38;71.29;100923.95;1734702;82;20980;-59
2022/10/05 02:55:19;;;;;;;8.23;3.15;;;;;;;11.34;71.27;100925.98;1727477;82;21086;-59
2022/10/05 02:58:14;;;;;;;6.12;2.72;;;;;;;11.30;71.46;100921.42;1734746;81;21055;-59
2022/10/05 03:00:49;;;;;;;8.10;2.77;;;;;;;11.33;71.46;100920.34;1733759;82;21114;-59
2022/10/05 03:03:33;;;;;;;6.25;2.85;;;;;;;11.36;71.29;100910.89;1730873;82;21039;-59
2022/10/05 03:06:09;;;;;;;6.70;3.08;;;;;;;11.34;71.37;100914.95;1736572;82;21034;-59
2022/10/05 03:09:01;;;;;;;6.70;3.45;;;;;;;11.30;71.27;100916.64;1731699;82;21047;-59
2022/10/05 03:12:12;;;;;;;5.15;2.83;;;;;;;11.25;71.33;100911.70;1730780;81;21058;-59
2022/10/05 03:15:11;;;;;;;6.65;3.12;;;;;;;11.24;71.45;100912.64;1731917;82;21449;-59
2022/10/05 03:17:50;;;;;;;5.35;2.80;;;;;;;11.28;71.28;100914.11;1728442;82;21090;-59
2022/10/05 03:20:49;;;;;;;5.80;2.98;;;;;;;11.28;71.28;100915.44;1731622;82;21058;-59
2022/10/05 03:23:28;;;;;;;6.90;3.50;;;;;;;11.25;71.43;100922.24;1700470;83;21053;-59
2022/10/05 03:26:25;;;;;;;5.83;2.47;;;;;;;11.20;71.70;100923.55;1736505;82;22206;-59
2022/10/05 03:29:01;;;;;;;8.25;2.95;;;;;;;11.19;71.69;100926.64;1719263;82;21161;-59
2022/10/05 03:31:52;;;;;;;10.10;2.87;;;;;;;11.24;71.57;100940.79;1733324;82;21477;-59
2022/10/05 03:35:03;;;;;;;7.17;3.33;;;;;;;11.23;71.62;100944.37;1733035;82;21025;-59
2022/10/05 03:37:58;;;;;;;6.00;3.20;;;;;;;11.19;71.50;100954.30;1730304;82;22250;-59
2022/10/05 03:40:52;;;;;;;8.33;3.33;;;;;;;11.11;71.42;100965.86;1694622;83;21043;-59
2022/10/05 03:43:45;;;;;;;9.30;3.20;;;;;;;11.09;71.32;100967.29;1718354;82;21983;-59
2022/10/05 03:46:37;;;;;;;6.85;3.17;;;;;;;11.15;71.33;100955.48;1727343;82;21064;-59
2022/10/05 03:49:28;;;;;;;5.28;3.17;;;;;;;11.09;71.60;100960.70;1715220;82;21027;-59
2022/10/05 03:52:18;;;;;;;6.10;3.20;;;;;;;11.05;71.75;100957.11;1741754;82;21008;-59
2022/10/05 03:55:03;;;;;;;6.15;3.17;;;;;;;11.01;71.89;100955.64;1701376;82;21015;-59
2022/10/05 03:57:34;;;;;;;6.40;3.05;;;;;;;11.05;71.84;100959.75;1713106;82;21275;-59
2022/10/05 04:00:07;;;;;;;6.08;2.90;;;;;;;11.06;71.73;100969.31;1691976;83;21003;-59
2022/10/05 04:03:10;;;;;;;6.65;2.80;;;;;;;11.06;71.74;100970.62;1665359;85;22401;-59
2022/10/05 04:05:57;;;;;;;8.43;3.60;;;;;;;11.02;71.79;100973.97;1697495;82;21004;-59
2022/10/05 04:08:43;;;;;;;6.53;3.08;;;;;;;10.98;71.99;100972.52;1683066;83;21125;-59
2022/10/05 04:11:15;;;;;;;5.70;2.60;;;;;;;11.03;71.85;100977.43;1692457;82;21267;-59
2022/10/05 04:14:04;;;;;;;5.28;2.50;;;;;;;11.03;71.91;100980.06;1693538;82;21016;-59
2022/10/05 04:16:35;;;;;;;6.40;3.45;;;;;;;11.03;71.76;100983.56;1737425;82;21079;-59
2022/10/05 04:19:16;;;;;;;6.72;3.25;;;;;;;11.00;71.86;100982.45;1735376;82;21011;-59
2022/10/05 04:22:06;;;;;;;5.72;3.02;;;;;;;10.98;71.91;100983.05;1726599;82;21107;-59
2022/10/05 04:24:55;;;;;;;5.05;2.72;;;;;;;11.02;71.99;100981.03;1731282;82;21272;-59
2022/10/05 04:27:32;;;;;;;5.58;3.00;;;;;;;11.06;71.77;100983.80;1719542;82;21165;-59
2022/10/05 04:30:15;;;;;;;8.68;3.08;;;;;;;11.07;71.58;100981.05;1734813;82;21083;-59
2022/10/05 04:32:47;;;;;;;7.78;3.92;;;;;;;11.07;71.68;100989.44;1732316;81;21074;-59
2022/10/05 04:35:50;;;;;;;6.33;2.95;;;;;;;11.05;71.80;100987.40;1748343;81;21397;-59
2022/10/05 04:38:44;;;;;;;7.53;3.10;;;;;;;11.03;71.85;100990.14;1707754;82;21468;-60
2022/10/05 04:41:34;;;;;;;7.80;3.27;;;;;;;11.06;71.56;100996.96;1705116;82;21022;-59
2022/10/05 04:44:26;;;;;;;6.47;3.25;;;;;;;11.04;71.57;101006.29;1691740;82;21038;-59
2022/10/05 04:47:19;;;;;;;7.42;3.00;;;;;;;11.03;71.86;101005.95;1712770;83;21030;-59
2022/10/05 04:50:09;;;;;;;7.53;3.17;;;;;;;11.03;72.09;101009.03;1684306;84;21109;-59
2022/10/05 04:52:53;;;;;;;6.42;3.10;;;;;;;11.06;72.02;100998.28;1691095;82;21731;-59
2022/10/05 04:55:44;;;;;;;7.03;3.12;;;;;;;11.10;71.92;100997.95;1705895;82;21054;-59
2022/10/05 04:58:52;;;;;;;5.92;2.80;;;;;;;11.08;72.03;100998.55;1711115;82;21610;-59
2022/10/05 05:01:39;;;;;;;7.80;3.47;;;;;;;11.04;72.01;101010.23;1714690;82;21003;-59
2022/10/05 05:04:53;;;;;;;6.15;2.85;;;;;;;10.98;72.24;101023.87;1698233;82;21429;-60
2022/10/05 05:07:48;;;;;;;7.20;2.65;;;;;;;10.97;72.43;101028.75;1694168;82;21205;-59
2022/10/05 05:10:43;;;;;;;5.28;2.75;;;;;;;11.06;72.48;101042.59;1706039;82;21128;-60
2022/10/05 05:14:00;;;;;;;6.50;3.40;;;;;;;11.12;72.31;101050.52;1717504;82;21042;-60
2022/10/05 05:16:39;;;;;;;9.83;3.27;;;;;;;11.11;72.41;101056.73;1710537;82;28220;-60
2022/10/05 05:19:27;;;;;;;6.60;3.15;;;;;;;11.08;72.52;101062.25;1712395;82;21028;-60
2022/10/05 05:22:05;;;;;;;7.33;3.42;;;;;;;11.12;72.17;101057.94;1709901;82;21954;-59
2022/10/05 05:25:21;;;;;;;7.15;3.47;;;;;;;11.21;71.97;101070.92;1715549;82;21342;-60
2022/10/05 05:27:54;;;;;;;9.55;3.70;;;;;;;11.23;71.75;101088.80;1700657;83;21531;-60
2022/10/05 05:30:41;;;;;;;7.45;2.77;;;;;;;11.23;71.61;101077.40;1685355;84;21107;-59
2022/10/05 05:33:19;;;;;;;7.42;3.47;;;;;;;11.65;70.26;101076.55;1693743;84;21217;-60
2022/10/05 05:36:11;;;;;;;6.67;3.77;;;;;;;11.40;70.75;101081.45;1712582;82;21794;-60
2022/10/05 05:39:14;;;;;;;5.28;3.15;;;;;;;11.40;70.97;101091.98;1712417;82;21086;-59
2022/10/05 05:41:59;;;;;;;5.62;3.02;;;;;;;11.41;70.56;101081.34;1709028;82;21038;-59
2022/10/05 05:44:28;;;;;;;6.45;2.70;;;;;;;11.37;70.39;101082.53;1709276;82;21081;-59
2022/10/05 05:47:03;;;;;;;7.45;2.80;;;;;;;11.35;70.19;101093.66;1715765;83;21536;-59
2022/10/05 05:50:06;;;;;;;5.70;2.45;;;;;;;11.37;70.07;101097.02;1708873;82;21166;-58
2022/10/05 05:52:46;;;;;;;7.30;2.95;;;;;;;11.48;70.25;101096.23;1714494;83;21045;-59
2022/10/05 05:55:26;;;;;;;7.30;3.00;;;;;;;11.59;70.07;101087.56;1710210;82;21049;-59
2022/10/05 05:58:18;;;;;;;5.62;2.70;;;;;;;11.64;69.66;101088.06;1712916;82;21554;-59
2022/10/05 06:00:51;;;;;;;6.65;3.00;;;;;;;11.67;69.15;101101.86;1684450;84;21712;-59
2022/10/05 06:03:35;;;;;;;4.92;2.37;;;;;;;11.72;68.42;101093.63;1695115;84;21104;-58
2022/10/05 06:06:05;;;;;;;7.12;3.30;;;;;;;11.74;68.76;101105.38;1711896;82;21030;-59
2022/10/05 06:08:49;;;;;;;7.60;3.05;;;;;;;11.81;68.81;101113.19;1712713;83;21773;-59
2022/10/05 06:11:37;;;;;;;;;;;;;;;11.88;68.43;101111.77;1708976;83;20987;-59
2022/10/05 06:14:10;;;;;;;5.50;3.08;;;;;;;11.91;68.02;101122.13;1684399;84;20181;-59
2022/10/05 06:16:44;;;;;;;7.35;3.33;;;;;;;11.91;67.92;101123.45;1654008;84;21329;-59
2022/10/05 06:19:15;;;;;;;6.62;2.58;;;;;;;11.90;68.08;101126.55;1685615;84;21060;-58
2022/10/05 06:22:07;;;;;;;8.58;2.95;;;;;;;11.95;68.21;101129.34;1699050;84;21533;-59
2022/10/05 06:25:06;;;;;;;6.75;3.08;;;;;;;12.04;67.65;101132.63;1696804;84;21088;-59
2022/10/05 06:27:38;;;;;;;5.90;2.95;;;;;;;12.06;67.44;101139.45;1684283;83;21059;-58
2022/10/05 06:30:16;;;;;;;5.55;3.10;;;;;;;12.06;67.50;101142.09;1694813;83;21110;-58
2022/10/05 06:33:12;;;;;;;9.13;2.60;;;;;;;12.04;67.51;101149.28;1708692;83;21044;-58
2022/10/05 06:35:44;;;;;;;7.08;2.95;;;;;;;12.02;67.69;101150.34;1701316;83;21034;-59
2022/10/05 06:38:41;;;;;;;6.67;3.17;;;;;;;12.11;67.50;101150.98;1708142;83;21519;-58
2022/10/05 06:41:20;;;;;;;7.25;2.52;;;;;;;12.16;67.13;101147.53;1699986;83;21067;-59
2022/10/05 06:44:09;;;;;;;6.20;2.80;;;;;;;12.17;66.85;101155.82;1706443;83;21288;-59
2022/10/05 06:47:13;;;;;;;6.62;2.67;;;;;;;12.17;66.86;101153.19;1706658;83;21102;-59
2022/10/05 06:50:16;;;;;;;5.25;2.60;;;;;;;12.14;67.30;101145.95;1704785;83;21560;-58
2022/10/05 06:53:43;;;;;;;5.95;2.90;;;;;;;12.14;67.60;101147.27;1705072;82;21609;-58
2022/10/05 06:56:45;;;;;;;5.35;3.02;;;;;;;12.17;66.75;101153.64;1695326;83;21078;-58
2022/10/05 06:59:42;;;;;;;8.35;2.77;;;;;;;12.13;66.81;101156.16;1688870;83;21528;-58
2022/10/05 07:02:37;;;;;;;5.97;3.27;;;;;;;12.13;67.29;101164.07;1707291;83;21106;-58
2022/10/05 07:05:43;;;;;;;5.83;2.65;;;;;;;12.20;67.33;101156.05;1704058;83;21044;-59
2022/10/05 07:08:29;;;;;;;8.15;3.20;;;;;;;12.33;66.82;101161.27;1701537;83;21073;-59
2022/10/05 07:11:39;;;;;;;9.00;2.55;;;;;;;12.44;65.06;101158.67;1693513;83;21594;-58
2022/10/05 07:14:27;;;;;;;7.92;2.58;;;;;;;12.50;65.40;101160.83;1700730;83;21868;-59
2022/10/05 07:17:22;;;;;;;5.87;2.75;;;;;;;12.53;65.77;101165.05;1683759;83;21091;-60
2022/10/05 07:20:02;;;;;;;7.22;2.60;;;;;;;12.55;65.72;101161.80;1703422;83;21012;-59
2022/10/05 07:23:08;;;;;;;7.33;2.47;;;;;;;12.55;65.38;101165.27;1684292;83;21023;-58
2022/10/05 07:25:49;;;;;;;4.55;2.33;;;;;;;12.60;64.81;101180.28;1698187;83;21063;-58
2022/10/05 07:29:09;;;;;;;5.15;2.35;;;;;;;12.70;64.64;101173.00;1694712;83;21561;-59
2022/10/05 07:31:46;;;;;;;6.17;2.55;;;;;;;12.79;64.50;101181.52;1682781;83;21031;-59
2022/10/05 07:34:20;;;;;;;;;;;;;;;12.74;64.51;101183.22;1692456;83;21068;-59
2022/10/05 07:40:10;;;;;;;6.20;2.22;;;;;;;12.72;64.79;101190.39;1710848;82;21002;-60
2022/10/05 07:42:54;;;;;;;6.50;2.20;;;;;;;12.85;64.70;101201.36;1713006;82;22437;-60
2022/10/05 07:45:45;;;;;;;5.42;2.40;;;;;;;12.99;64.21;101195.38;1708684;83;21097;-60
2022/10/05 07:48:22;;;;;;;5.17;2.40;;;;;;;13.06;63.98;101195.71;1717828;82;21475;-60
2022/10/05 07:51:10;;;;;;;5.75;2.22;;;;;;;13.20;63.04;101207.38;1713826;83;21526;-58
2022/10/05 07:53:43;;;;;;;5.92;2.33;;;;;;;13.26;62.50;101203.90;1705256;82;21030;-58
2022/10/05 07:56:20;;;;;;;6.92;2.27;;;;;;;13.25;62.18;101206.20;1703902;83;21108;-59
2022/10/05 07:59:03;;;;;;;6.47;2.45;;;;;;;13.22;61.18;101208.59;1692671;83;21134;-59
2022/10/05 08:01:33;;;;;;;8.15;2.45;;;;;;;13.19;61.56;101210.98;1712019;82;21089;-59
2022/10/05 08:04:19;;;;;;;5.58;2.33;;;;;;;13.22;61.95;101215.69;1715394;82;21042;-59
2022/10/05 08:06:58;;;;;;;4.78;2.30;;;;;;;13.27;62.28;101214.84;1705428;83;21002;-59
2022/10/05 08:09:45;;;;;;;6.15;2.50;;;;;;;13.30;61.45;101207.52;1687527;84;21185;-58
2022/10/05 08:12:35;;;;;;;6.72;2.62;;;;;;;13.29;60.99;101208.46;1694438;84;21992;-60
2022/10/05 08:15:10;;;;;;;4.08;2.12;;;;;;;13.26;61.40;101199.45;1695039;84;21511;-59
2022/10/05 08:17:46;;;;;;;4.78;2.42;;;;;;;13.24;61.86;101198.73;1692325;84;21051;-58
2022/10/05 08:20:42;;;;;;;7.58;2.33;;;;;;;13.26;61.86;101198.61;1689738;84;21050;-58
2022/10/05 08:23:37;;;;;;;5.05;2.15;;;;;;;13.27;62.08;101202.46;1696325;84;21153;-58
2022/10/05 08:26:47;;;;;;;6.78;2.17;;;;;;;13.32;61.67;101204.78;1697462;84;21122;-58
2022/10/05 08:29:50;;;;;;;8.38;2.15;;;;;;;13.37;61.33;101204.77;1696233;84;21071;-59
2022/10/05 08:32:26;;;;;;;5.92;1.80;;;;;;;13.41;61.00;101205.36;1693429;84;21091;-59
2022/10/05 08:35:18;;;;;;;4.35;2.00;;;;;;;13.44;61.34;101209.09;1722218;82;21073;-59
2022/10/05 08:37:45;;;;;;;6.25;2.02;;;;;;;13.52;61.13;101204.04;1711042;82;21167;-59
2022/10/05 08:40:38;;;;;;;6.67;1.90;;;;;;;13.57;60.97;101216.91;1702408;82;21066;-60
2022/10/05 08:43:28;;;;;;;4.58;1.90;;;;;;;13.57;60.96;101206.33;1712614;82;21050;-59
2022/10/05 08:46:07;;;;;;;6.95;1.85;;;;;;;13.59;61.21;101211.00;1738175;82;21100;-60
2022/10/05 08:48:58;;;;;;;4.95;2.20;;;;;;;13.68;60.39;101210.75;1747848;82;21465;-59
2022/10/05 08:51:45;;;;;;;6.00;2.33;;;;;;;13.80;60.26;101219.04;1744007;81;21166;-59
2022/10/05 08:54:41;;;;;;;6.47;2.50;;;;;;;13.86;59.84;101214.55;1746396;82;21023;-60
2022/10/05 08:57:28;;;;;;;6.17;2.08;;;;;;;13.83;59.15;101216.61;1743362;82;20999;-59
2022/10/05 09:00:02;;;;;;;6.20;1.80;;;;;;;13.79;58.36;101221.80;1687717;82;21087;-59
2022/10/05 09:03:07;;;;;;;5.65;1.80;;;;;;;13.73;58.27;101238.98;1741432;81;21090;-59
